createdAt,value
2018-04-26T00:00:41.673Z,13.89
2018-04-26T00:03:09.272Z,14.08
2018-04-26T00:05:37.068Z,14.00
2018-04-26T00:08:04.678Z,13.88
2018-04-26T00:10:32.264Z,13.81
2018-04-26T00:13:00.027Z,13.89
2018-04-26T00:15:27.634Z,13.80
2018-04-26T00:17:55.211Z,13.79
2018-04-26T00:20:22.800Z,13.71
2018-04-26T00:22:50.405Z,13.68
2018-04-26T00:25:18.138Z,13.77
2018-04-26T00:27:45.906Z,13.92
2018-04-26T00:30:13.530Z,13.86
2018-04-26T00:32:41.120Z,13.78
2018-04-26T00:35:09.080Z,13.70
2018-04-26T00:37:36.763Z,13.64
2018-04-26T00:40:04.343Z,13.55
2018-04-26T00:42:32.089Z,13.53
2018-04-26T00:44:59.755Z,13.49
2018-04-26T00:47:27.411Z,13.49
2018-04-26T00:49:54.989Z,13.52
2018-04-26T00:52:22.590Z,13.44
2018-04-26T00:54:50.191Z,13.45
2018-04-26T00:57:17.857Z,13.40
2018-04-26T00:59:45.485Z,13.38
2018-04-26T01:02:13.063Z,13.30
2018-04-26T01:04:40.637Z,13.20
2018-04-26T01:07:08.266Z,13.17
2018-04-26T01:09:35.852Z,13.15
2018-04-26T01:12:03.439Z,13.07
2018-04-26T01:14:31.068Z,12.97
2018-04-26T01:16:58.659Z,12.99
2018-04-26T01:19:26.408Z,13.01
2018-04-26T01:21:54.071Z,12.91
2018-04-26T01:24:21.743Z,12.86
2018-04-26T01:26:49.396Z,12.88
2018-04-26T01:29:17.042Z,12.87
2018-04-26T01:31:44.634Z,12.92
2018-04-26T01:34:12.598Z,12.94
2018-04-26T01:36:51.939Z,12.99
2018-04-26T01:39:19.517Z,12.87
2018-04-26T01:41:47.095Z,12.78
2018-04-26T01:44:15.694Z,12.74
2018-04-26T01:46:43.397Z,12.71
2018-04-26T01:49:10.980Z,12.68
2018-04-26T01:51:39.549Z,12.72
2018-04-26T01:54:07.394Z,12.81
2018-04-26T01:56:35.068Z,13.07
2018-04-26T01:59:02.700Z,13.16
2018-04-26T02:01:30.388Z,13.24
2018-04-26T02:03:57.963Z,13.26
2018-04-26T02:06:25.588Z,13.23
2018-04-26T02:08:53.167Z,13.29
2018-04-26T02:11:20.833Z,13.17
2018-04-26T02:13:48.448Z,13.01
2018-04-26T02:16:16.027Z,13.21
2018-04-26T02:18:43.818Z,13.25
2018-04-26T02:21:11.494Z,13.07
2018-04-26T02:23:39.147Z,12.91
2018-04-26T02:26:06.817Z,12.88
2018-04-26T02:28:34.443Z,12.80
2018-04-26T02:31:02.128Z,12.79
2018-04-26T02:33:29.991Z,12.74
2018-04-26T02:35:57.619Z,12.74
2018-04-26T02:38:25.197Z,12.81
2018-04-26T02:40:52.774Z,12.77
2018-04-26T02:43:20.440Z,12.81
2018-04-26T02:45:48.031Z,12.71
2018-04-26T02:48:15.618Z,12.65
2018-04-26T02:50:43.248Z,12.57
2018-04-26T02:53:10.894Z,12.50
2018-04-26T02:55:38.546Z,12.57
2018-04-26T02:58:06.221Z,12.61
2018-04-26T03:00:33.866Z,12.63
2018-04-26T03:03:01.528Z,12.65
2018-04-26T03:05:29.207Z,12.60
2018-04-26T03:07:56.925Z,12.49
2018-04-26T03:10:24.942Z,12.44
2018-04-26T03:12:52.601Z,12.38
2018-04-26T03:15:20.453Z,12.48
2018-04-26T03:17:48.040Z,12.45
2018-04-26T03:20:15.666Z,12.41
2018-04-26T03:22:43.450Z,12.36
2018-04-26T03:25:11.104Z,12.32
2018-04-26T03:27:42.071Z,12.39
2018-04-26T03:30:09.721Z,12.58
2018-04-26T03:32:37.308Z,12.50
2018-04-26T03:35:04.969Z,12.44
2018-04-26T03:37:32.724Z,12.45
2018-04-26T03:40:00.364Z,12.49
2018-04-26T03:42:27.977Z,12.58
2018-04-26T03:44:55.560Z,12.73
2018-04-26T03:47:23.323Z,12.81
2018-04-26T03:49:50.953Z,13.01
2018-04-26T03:52:18.676Z,13.58
2018-04-26T03:54:46.258Z,14.53
2018-04-26T03:57:14.001Z,15.30
2018-04-26T03:59:53.342Z,15.93
2018-04-26T04:02:32.942Z,16.51
2018-04-26T04:08:05.683Z,18.39
2018-04-26T04:10:33.335Z,18.95
2018-04-26T04:13:00.923Z,19.61
2018-04-26T04:15:28.535Z,20.43
2018-04-26T04:17:56.111Z,20.87
2018-04-26T04:20:23.699Z,21.18
2018-04-26T04:22:51.311Z,21.83
2018-04-26T04:25:18.892Z,22.39
2018-04-26T04:27:46.470Z,22.66
2018-04-26T04:30:14.369Z,23.04
2018-04-26T04:32:42.093Z,23.46
2018-04-26T04:35:09.754Z,23.67
2018-04-26T04:37:37.385Z,24.14
2018-04-26T04:40:04.978Z,24.11
2018-04-26T04:42:32.560Z,23.97
2018-04-26T04:45:00.172Z,23.76
2018-04-26T04:47:27.758Z,24.09
2018-04-26T04:49:55.336Z,24.07
2018-04-26T04:52:22.934Z,24.74
2018-04-26T04:54:50.505Z,24.96
2018-04-26T04:57:18.084Z,25.31
2018-04-26T04:59:45.707Z,26.10
2018-04-26T05:02:13.435Z,26.65
2018-04-26T05:04:41.018Z,26.37
2018-04-26T05:07:08.646Z,26.43
2018-04-26T05:09:36.263Z,26.84
2018-04-26T05:12:03.861Z,26.63
2018-04-26T05:14:31.477Z,27.08
2018-04-26T05:16:59.052Z,28.16
2018-04-26T05:19:26.624Z,29.26
2018-04-26T05:21:54.244Z,30.23
2018-04-26T05:24:21.828Z,29.92
2018-04-26T05:26:49.411Z,30.49
2018-04-26T05:29:17.025Z,30.30
2018-04-26T05:31:44.617Z,30.93
2018-04-26T05:34:12.204Z,30.50
2018-04-26T05:36:39.828Z,30.56
2018-04-26T05:39:07.403Z,30.52
2018-04-26T05:41:34.975Z,29.72
2018-04-26T05:44:02.626Z,30.67
2018-04-26T05:46:30.216Z,31.03
2018-04-26T05:48:57.794Z,31.54
2018-04-26T05:51:25.408Z,30.89
2018-04-26T05:53:52.991Z,31.23
2018-04-26T05:56:20.565Z,31.41
2018-04-26T05:58:48.161Z,32.45
2018-04-26T06:01:15.735Z,32.84
2018-04-26T06:03:43.329Z,32.19
2018-04-26T06:06:10.983Z,32.87
2018-04-26T06:08:38.555Z,33.20
2018-04-26T06:11:06.130Z,33.11
2018-04-26T06:13:33.736Z,33.46
2018-04-26T06:16:01.327Z,33.76
2018-04-26T06:18:28.938Z,33.63
2018-04-26T06:20:56.543Z,34.19
2018-04-26T06:23:24.123Z,34.51
2018-04-26T06:25:51.702Z,34.49
2018-04-26T06:28:19.312Z,34.47
2018-04-26T06:30:46.887Z,34.33
2018-04-26T06:33:14.472Z,34.07
2018-04-26T06:35:42.151Z,34.60
2018-04-26T06:38:09.733Z,34.14
2018-04-26T06:40:37.451Z,33.90
2018-04-26T06:43:05.069Z,35.45
2018-04-26T06:45:32.652Z,35.49
2018-04-26T06:48:00.261Z,36.18
2018-04-26T06:50:27.875Z,35.80
2018-04-26T06:52:55.480Z,35.74
2018-04-26T06:55:23.082Z,35.64
2018-04-26T06:57:50.699Z,35.85
2018-04-26T07:00:18.284Z,35.88
2018-04-26T07:02:45.869Z,35.98
2018-04-26T07:05:13.483Z,35.99
2018-04-26T07:07:41.063Z,35.82
2018-04-26T07:10:08.648Z,36.44
2018-04-26T07:12:36.269Z,36.95
2018-04-26T07:15:03.849Z,36.66
2018-04-26T07:17:31.435Z,36.91
2018-04-26T07:19:59.129Z,37.01
2018-04-26T07:22:26.706Z,36.84
2018-04-26T07:24:54.287Z,36.76
2018-04-26T07:27:21.963Z,37.65
2018-04-26T07:29:49.553Z,37.30
2018-04-26T07:32:17.133Z,37.14
2018-04-26T07:34:44.841Z,37.30
2018-04-26T07:37:12.376Z,37.17
2018-04-26T07:39:39.967Z,37.50
2018-04-26T07:42:07.588Z,37.76
2018-04-26T07:44:35.166Z,36.55
2018-04-26T07:47:02.798Z,36.30
2018-04-26T07:49:30.459Z,35.17
2018-04-26T07:51:58.038Z,35.07
2018-04-26T07:54:25.626Z,35.30
2018-04-26T07:56:53.232Z,36.67
2018-04-26T07:59:20.819Z,37.09
2018-04-26T08:01:48.437Z,37.73
2018-04-26T08:04:16.060Z,36.41
2018-04-26T08:06:43.645Z,38.03
2018-04-26T08:09:11.224Z,37.91
2018-04-26T08:11:38.851Z,38.66
2018-04-26T08:14:06.488Z,38.50
2018-04-26T08:16:34.073Z,38.68
2018-04-26T08:19:01.707Z,38.90
2018-04-26T08:21:29.289Z,39.23
2018-04-26T08:23:56.863Z,39.46
2018-04-26T08:26:24.488Z,40.16
2018-04-26T08:28:52.072Z,40.13
2018-04-26T08:31:19.652Z,39.50
2018-04-26T08:33:47.279Z,39.18
2018-04-26T08:36:14.860Z,37.56
2018-04-26T08:38:42.453Z,38.17
2018-04-26T08:41:10.077Z,39.28
2018-04-26T08:43:37.656Z,39.16
2018-04-26T08:46:05.261Z,39.49
2018-04-26T08:48:32.881Z,39.53
2018-04-26T08:51:00.472Z,39.03
2018-04-26T08:53:28.055Z,38.87
2018-04-26T08:55:55.677Z,38.88
2018-04-26T08:58:23.261Z,39.15
2018-04-26T09:00:50.888Z,39.33
2018-04-26T09:03:18.512Z,39.60
2018-04-26T09:05:46.092Z,39.56
2018-04-26T09:08:13.671Z,40.07
2018-04-26T09:10:41.290Z,39.00
2018-04-26T09:13:08.863Z,38.35
2018-04-26T09:15:36.524Z,38.02
2018-04-26T09:18:04.123Z,38.54
2018-04-26T09:20:31.706Z,39.49
2018-04-26T09:22:59.283Z,39.36
2018-04-26T09:25:26.895Z,40.03
2018-04-26T09:27:54.489Z,40.14
2018-04-26T09:30:22.270Z,40.41
2018-04-26T09:32:49.900Z,39.99
2018-04-26T09:35:17.491Z,40.30
2018-04-26T09:37:45.074Z,40.50
2018-04-26T09:40:12.693Z,41.05
2018-04-26T09:42:40.274Z,41.76
2018-04-26T09:45:07.857Z,41.67
2018-04-26T09:47:35.499Z,42.80
2018-04-26T09:50:03.079Z,41.98
2018-04-26T09:52:30.665Z,40.95
2018-04-26T09:54:58.275Z,40.27
2018-04-26T09:57:25.849Z,39.88
2018-04-26T09:59:53.420Z,39.13
2018-04-26T10:02:25.788Z,39.82
2018-04-26T10:04:55.379Z,39.36
2018-04-26T10:07:22.963Z,38.75
2018-04-26T10:09:50.600Z,38.78
2018-04-26T10:12:18.184Z,39.40
2018-04-26T10:14:45.772Z,40.12
2018-04-26T10:17:13.400Z,39.14
2018-04-26T10:19:40.992Z,39.33
2018-04-26T10:22:08.640Z,39.53
2018-04-26T10:24:36.265Z,40.03
2018-04-26T10:27:03.872Z,40.21
2018-04-26T10:29:31.449Z,40.52
2018-04-26T10:31:59.154Z,40.54
2018-04-26T10:34:26.710Z,40.24
2018-04-26T10:36:54.295Z,40.52
2018-04-26T10:39:21.915Z,40.69
2018-04-26T10:41:49.494Z,39.50
2018-04-26T10:44:17.082Z,40.12
2018-04-26T10:46:44.727Z,39.56
2018-04-26T10:49:12.304Z,40.33
2018-04-26T10:51:39.878Z,39.61
2018-04-26T10:54:07.507Z,39.30
2018-04-26T10:56:35.078Z,39.88
2018-04-26T10:59:02.684Z,40.36
2018-04-26T11:01:30.297Z,39.97
2018-04-26T11:03:57.937Z,40.10
2018-04-26T11:06:25.527Z,40.73
2018-04-26T11:08:53.140Z,40.48
2018-04-26T11:11:20.800Z,39.15
2018-04-26T11:13:48.339Z,39.33
2018-04-26T11:16:15.962Z,39.64
2018-04-26T11:18:43.541Z,37.39
2018-04-26T11:21:11.128Z,38.08
2018-04-26T11:23:38.754Z,39.63
2018-04-26T11:26:06.327Z,40.98
2018-04-26T11:28:33.899Z,41.58
2018-04-26T11:31:01.547Z,41.28
2018-04-26T11:33:29.113Z,42.14
2018-04-26T11:35:56.701Z,41.35
2018-04-26T11:38:24.315Z,41.40
2018-04-26T11:40:51.895Z,42.94
2018-04-26T11:43:19.462Z,42.47
2018-04-26T11:45:47.062Z,42.16
2018-04-26T11:48:14.639Z,42.65
2018-04-26T11:50:42.222Z,43.14
2018-04-26T11:53:09.830Z,42.21
2018-04-26T11:55:37.414Z,40.86
2018-04-26T11:58:04.987Z,39.05
2018-04-26T12:00:32.603Z,39.90
2018-04-26T12:03:00.181Z,39.74
2018-04-26T12:05:27.756Z,39.44
2018-04-26T12:07:55.372Z,38.76
2018-04-26T12:10:22.975Z,39.41
2018-04-26T12:12:50.550Z,40.89
2018-04-26T12:15:18.167Z,41.29
2018-04-26T12:17:45.747Z,41.05
2018-04-26T12:20:13.339Z,40.71
2018-04-26T12:22:40.994Z,41.80
2018-04-26T12:25:08.572Z,42.32
2018-04-26T12:27:36.164Z,41.51
2018-04-26T12:30:03.818Z,40.70
2018-04-26T12:32:31.401Z,40.29
2018-04-26T12:34:58.983Z,39.81
2018-04-26T12:37:26.604Z,39.94
2018-04-26T12:39:54.187Z,39.53
2018-04-26T12:42:21.859Z,38.18
2018-04-26T12:44:49.428Z,37.18
2018-04-26T12:47:17.005Z,37.86
2018-04-26T12:49:44.598Z,36.63
2018-04-26T12:52:12.221Z,36.89
2018-04-26T12:54:39.812Z,37.05
2018-04-26T12:57:07.392Z,36.56
2018-04-26T12:59:35.022Z,36.05
2018-04-26T13:02:02.635Z,35.51
2018-04-26T13:04:30.214Z,35.15
2018-04-26T13:06:57.822Z,34.34
2018-04-26T13:09:25.406Z,34.10
2018-04-26T13:11:55.836Z,33.68
2018-04-26T13:14:24.087Z,33.29
2018-04-26T13:16:51.894Z,33.47
2018-04-26T13:19:19.752Z,32.93
2018-04-26T13:21:47.328Z,32.52
2018-04-26T13:24:14.892Z,32.59
2018-04-26T13:26:42.526Z,32.74
2018-04-26T13:29:10.135Z,32.75
2018-04-26T13:31:37.750Z,32.62
2018-04-26T13:34:05.332Z,32.60
2018-04-26T13:36:32.945Z,32.09
2018-04-26T13:39:00.567Z,32.04
2018-04-26T13:41:28.150Z,32.03
2018-04-26T13:43:55.756Z,32.04
2018-04-26T13:46:23.351Z,31.57
2018-04-26T13:48:50.923Z,31.25
2018-04-26T13:51:18.573Z,31.29
2018-04-26T13:53:46.147Z,31.50
2018-04-26T13:56:13.779Z,31.39
2018-04-26T13:58:41.391Z,31.51
2018-04-26T14:01:08.988Z,31.54
2018-04-26T14:03:36.587Z,31.52
2018-04-26T14:06:04.329Z,31.57
2018-04-26T14:08:31.915Z,31.33
2018-04-26T14:10:59.495Z,31.38
2018-04-26T14:13:27.108Z,31.27
2018-04-26T14:15:54.696Z,31.28
2018-04-26T14:18:22.281Z,31.47
2018-04-26T14:20:49.957Z,31.59
2018-04-26T14:23:17.639Z,31.66
2018-04-26T14:25:45.411Z,31.69
2018-04-26T14:28:13.046Z,31.63
2018-04-26T14:30:40.618Z,31.59
2018-04-26T14:33:08.229Z,31.49
2018-04-26T14:35:35.894Z,31.12
2018-04-26T14:38:03.479Z,30.94
2018-04-26T14:40:31.065Z,31.06
2018-04-26T14:42:58.693Z,30.96
2018-04-26T14:45:26.277Z,30.89
2018-04-26T14:47:53.851Z,30.78
2018-04-26T14:50:21.446Z,30.36
2018-04-26T14:52:49.091Z,30.25
2018-04-26T14:55:16.738Z,30.17
2018-04-26T14:57:44.351Z,30.06
2018-04-26T15:00:11.915Z,29.92
2018-04-26T15:02:39.481Z,29.83
2018-04-26T15:05:07.094Z,29.69
2018-04-26T15:07:34.819Z,29.63
2018-04-26T15:10:02.387Z,29.64
2018-04-26T15:12:30.009Z,29.71
2018-04-26T15:14:57.582Z,29.71
2018-04-26T15:17:25.157Z,29.74
2018-04-26T15:19:52.804Z,29.53
2018-04-26T15:22:20.376Z,29.43
2018-04-26T15:24:47.956Z,29.53
2018-04-26T15:27:15.632Z,29.47
2018-04-26T15:29:43.215Z,29.51
2018-04-26T15:32:10.806Z,29.51
2018-04-26T15:34:38.419Z,29.51
2018-04-26T15:37:06.055Z,29.38
2018-04-26T15:39:33.602Z,29.29
2018-04-26T15:42:01.235Z,29.24
2018-04-26T15:44:28.824Z,29.16
2018-04-26T15:46:56.399Z,29.14
2018-04-26T15:49:24.022Z,29.06
2018-04-26T15:51:51.609Z,28.94
2018-04-26T15:54:31.058Z,28.89
2018-04-26T15:57:07.554Z,28.77
2018-04-26T15:59:46.931Z,28.61
2018-04-26T16:02:34.732Z,28.34
2018-04-26T16:05:19.772Z,28.09
2018-04-26T16:08:04.798Z,27.88
2018-04-26T16:10:49.887Z,27.66
2018-04-26T16:13:34.842Z,27.41
2018-04-26T16:19:34.480Z,27.11
2018-04-26T16:31:58.720Z,26.18
2018-04-26T16:34:50.027Z,25.95
2018-04-26T16:37:34.956Z,25.78
2018-04-26T16:40:02.553Z,25.50
2018-04-26T16:42:30.148Z,25.33
2018-04-26T16:44:57.733Z,25.11
2018-04-26T16:47:25.322Z,24.94
2018-04-26T16:49:52.957Z,24.78
2018-04-26T16:52:20.747Z,24.58
2018-04-26T16:54:48.347Z,24.29
2018-04-26T16:57:15.932Z,24.07
2018-04-26T16:59:43.539Z,23.87
2018-04-26T17:02:11.165Z,23.66
2018-04-26T17:04:38.907Z,23.48
2018-04-26T17:07:06.464Z,23.28
2018-04-26T17:09:34.114Z,23.14
2018-04-26T17:12:01.695Z,23.03
2018-04-26T17:14:29.291Z,22.84
2018-04-26T17:16:56.983Z,22.69
2018-04-26T17:19:24.540Z,22.55
2018-04-26T17:21:52.137Z,22.39
2018-04-26T17:24:19.762Z,22.16
2018-04-26T17:26:47.353Z,22.07
2018-04-26T17:29:14.970Z,21.94
2018-04-26T17:31:42.584Z,21.80
2018-04-26T17:34:10.207Z,21.65
2018-04-26T17:36:37.943Z,21.52
2018-04-26T17:39:06.625Z,21.45
2018-04-26T17:41:34.264Z,21.42
2018-04-26T17:44:01.846Z,21.27
2018-04-26T17:46:29.461Z,21.08
2018-04-26T17:48:57.061Z,21.03
2018-04-26T17:51:24.644Z,20.94
2018-04-26T17:53:52.271Z,20.85
2018-04-26T17:56:19.863Z,20.81
2018-04-26T17:58:47.569Z,20.74
2018-04-26T18:01:15.173Z,20.56
2018-04-26T18:03:42.756Z,20.42
2018-04-26T18:06:10.330Z,20.21
2018-04-26T18:08:38.145Z,20.11
2018-04-26T18:11:05.714Z,20.08
2018-04-26T18:13:33.300Z,19.96
2018-04-26T18:16:00.953Z,19.82
2018-04-26T18:18:28.600Z,19.70
2018-04-26T18:20:56.180Z,19.65
2018-04-26T18:23:23.928Z,19.53
2018-04-26T18:25:51.582Z,19.44
2018-04-26T18:28:19.170Z,19.26
2018-04-26T18:30:46.918Z,19.23
2018-04-26T18:33:14.510Z,19.23
2018-04-26T18:35:42.109Z,19.15
2018-04-26T18:38:09.907Z,19.07
2018-04-26T18:40:37.486Z,19.14
2018-04-26T18:43:05.125Z,19.06
2018-04-26T18:45:32.745Z,19.00
2018-04-26T18:48:00.325Z,18.90
2018-04-26T18:50:27.903Z,18.75
2018-04-26T18:52:55.561Z,18.66
2018-04-26T18:55:23.329Z,18.54
2018-04-26T18:57:50.920Z,18.37
2018-04-26T19:00:18.555Z,18.22
2018-04-26T19:02:46.166Z,18.17
2018-04-26T19:05:13.741Z,18.09
2018-04-26T19:07:41.433Z,17.97
2018-04-26T19:10:09.088Z,17.98
2018-04-26T19:12:36.662Z,17.94
2018-04-26T19:15:04.286Z,17.97
2018-04-26T19:17:31.912Z,17.91
2018-04-26T19:19:59.465Z,17.83
2018-04-26T19:22:27.105Z,17.94
2018-04-26T19:24:54.704Z,17.96
2018-04-26T19:27:22.279Z,17.91
2018-04-26T19:29:49.893Z,17.95
2018-04-26T19:32:17.453Z,17.88
2018-04-26T19:34:45.012Z,17.75
2018-04-26T19:37:12.608Z,17.75
2018-04-26T19:39:40.173Z,17.65
2018-04-26T19:42:07.757Z,17.57
2018-04-26T19:44:35.367Z,17.46
2018-04-26T19:47:03.006Z,17.32
2018-04-26T19:49:30.585Z,17.22
2018-04-26T19:51:58.210Z,17.09
2018-04-26T19:54:25.780Z,17.02
2018-04-26T19:56:53.349Z,16.92
2018-04-26T19:59:20.947Z,16.81
2018-04-26T20:01:48.857Z,16.80
2018-04-26T20:04:16.441Z,16.74
2018-04-26T20:06:44.045Z,16.67
2018-04-26T20:09:11.610Z,16.54
2018-04-26T20:11:39.170Z,16.51
2018-04-26T20:14:06.792Z,16.48
2018-04-26T20:16:34.348Z,16.63
2018-04-26T20:19:01.924Z,16.60
2018-04-26T20:21:29.533Z,16.56
2018-04-26T20:23:57.102Z,16.55
2018-04-26T20:26:24.682Z,16.41
2018-04-26T20:28:52.274Z,16.40
2018-04-26T20:31:19.838Z,16.29
2018-04-26T20:33:47.407Z,16.26
2018-04-26T20:36:15.096Z,16.20
2018-04-26T20:38:42.613Z,16.16
2018-04-26T20:41:10.180Z,16.12
2018-04-26T20:43:37.784Z,16.04
2018-04-26T20:46:05.357Z,16.02
2018-04-26T20:48:41.867Z,15.92
2018-04-26T20:51:09.477Z,15.89
2018-04-26T20:53:37.046Z,15.82
2018-04-26T20:56:04.657Z,15.74
2018-04-26T20:58:32.270Z,15.68
2018-04-26T21:00:59.856Z,15.69
2018-04-26T21:03:27.468Z,15.73
2018-04-26T21:05:55.038Z,15.74
2018-04-26T21:08:22.702Z,15.72
2018-04-26T21:10:50.277Z,15.64
2018-04-26T21:13:18.043Z,15.60
2018-04-26T21:15:45.612Z,15.55
2018-04-26T21:18:13.268Z,15.55
2018-04-26T21:20:41.037Z,15.58
2018-04-26T21:23:08.629Z,15.55
2018-04-26T21:25:36.248Z,15.53
2018-04-26T21:28:03.816Z,15.46
2018-04-26T21:30:31.388Z,15.40
2018-04-26T21:32:59.023Z,15.38
2018-04-26T21:35:26.615Z,15.33
2018-04-26T21:37:54.299Z,15.30
2018-04-26T21:40:21.944Z,15.42
2018-04-26T21:42:49.529Z,15.42
2018-04-26T21:45:17.240Z,15.49
2018-04-26T21:47:44.894Z,15.49
2018-04-26T21:50:17.953Z,15.39
2018-04-26T21:52:51.294Z,15.31
2018-04-26T21:55:24.336Z,15.26
2018-04-26T21:57:57.455Z,15.19
2018-04-26T22:00:30.604Z,15.10
2018-04-26T22:02:57.702Z,15.03
2018-04-26T22:05:28.014Z,14.99
2018-04-26T22:07:55.602Z,15.19
2018-04-26T22:10:23.218Z,15.08
2018-04-26T22:12:50.806Z,15.02
2018-04-26T22:15:18.383Z,14.97
2018-04-26T22:17:46.007Z,14.95
2018-04-26T22:20:13.592Z,14.97
2018-04-26T22:22:41.179Z,14.97
2018-04-26T22:25:08.803Z,15.03
2018-04-26T22:27:36.393Z,14.95
2018-04-26T22:30:04.026Z,14.93
2018-04-26T22:32:31.644Z,14.83
2018-04-26T22:34:59.225Z,14.73
2018-04-26T22:37:26.820Z,14.69
2018-04-26T22:39:54.439Z,14.72
2018-04-26T22:42:22.024Z,14.66
2018-04-26T22:44:49.611Z,14.59
2018-04-26T22:47:17.319Z,14.54
2018-04-26T22:49:44.866Z,14.52
2018-04-26T22:52:12.461Z,14.45
2018-04-26T22:54:40.137Z,14.35
2018-04-26T22:57:07.717Z,14.31
2018-04-26T22:59:35.287Z,14.29
2018-04-26T23:02:02.911Z,14.21
2018-04-26T23:04:30.500Z,14.33
2018-04-26T23:06:58.162Z,14.38
2018-04-26T23:09:25.784Z,14.38
2018-04-26T23:11:53.371Z,14.42
2018-04-26T23:14:20.955Z,14.55
2018-04-26T23:16:48.588Z,14.47
2018-04-26T23:19:16.184Z,14.53
2018-04-26T23:21:43.759Z,14.58
2018-04-26T23:24:11.408Z,14.65
2018-04-26T23:26:38.992Z,14.71
2018-04-26T23:29:06.582Z,14.84
2018-04-26T23:31:34.211Z,14.76
2018-04-26T23:34:01.808Z,14.72
2018-04-26T23:36:29.465Z,14.78
2018-04-26T23:38:57.092Z,14.77
2018-04-26T23:41:24.676Z,14.82
2018-04-26T23:43:52.263Z,14.95
2018-04-26T23:46:19.890Z,14.87
2018-04-26T23:48:47.467Z,14.77
2018-04-26T23:51:15.042Z,14.71
2018-04-26T23:53:42.711Z,14.62
2018-04-26T23:56:10.382Z,14.74
2018-04-26T23:58:37.970Z,14.76
